Data for 08/14/2014

Time Sea-Level Adjusted Pressure Absolute Pressure Temperature Relative Humidity Dew Point   
(mb) (inHg) (mb) (inHg) (C) (F) (%) (C) (F)
00:05 1020 30.12 850 25.1 18.2 64.7 63 11.2 52.2
00:10 1021 30.15 850 25.1 18.2 64.8 62 11 51.8
00:15 1021 30.15 850 25.1 18.3 65 62 11 51.7
00:20 1021 30.15 850 25.1 18.3 65 62 11 51.8
00:25 1021 30.15 850 25.1 18.3 65 62 11.1 52
00:30 1021 30.15 850 25.1 18.3 64.9 62 11.1 51.9
00:35 1021 30.15 850 25.1 18.2 64.7 63 11.2 52.1
00:40 1021 30.15 850 25.1 18 64.5 64 11.1 52
00:45 1020 30.12 850 25.1 18 64.3 64 11.1 52
00:50 1020 30.12 850 25.1 17.9 64.2 64 11.2 52.1
00:55 1020 30.12 850 25.1 17.8 64 65 11.2 52.1
01:00 1020 30.12 850 25.1 17.7 63.8 66 11.2 52.2
01:05 1020 30.12 849 25.07 17.6 63.6 66 11.3 52.3
01:10 1020 30.12 849 25.07 17.4 63.3 67 11.2 52.2
01:15 1020 30.12 849 25.07 17.3 63.1 67 11.1 52
01:20 1020 30.12 849 25.07 17.2 63 68 11.2 52.2
01:25 1020 30.12 849 25.07 17 62.6 68 11.2 52.1
01:30 1020 30.12 849 25.07 16.8 62.3 70 11.3 52.4
01:35 1020 30.12 849 25.07 16.7 62.1 73 12 53.5
01:40 1020 30.12 849 25.07 16.7 62.1 71 11.5 52.6
01:45 1020 30.12 849 25.07 16.5 61.8 71 11.3 52.4
01:50 1020 30.12 849 25.07 16.3 61.4 72 11.3 52.3
01:55 1020 30.12 849 25.07 16.4 61.5 71 11.1 52
02:00 1020 30.12 849 25.07 16.5 61.7 69 11 51.7
02:05 1020 30.12 849 25.07 16.6 62 70 11.2 52.1
02:10 1020 30.12 849 25.07 16.6 61.9 70 11.3 52.3
02:15 1019 30.09 849 25.07 16.4 61.6 72 11.3 52.4
02:20 1019 30.09 849 25.07 16.4 61.5 71 11.2 52.1
02:25 1019 30.09 849 25.07 16.5 61.7 71 11.3 52.3
02:30 1019 30.09 848 25.04 16.6 61.8 70 11.2 52.2
02:35 1019 30.09 848 25.04 16.5 61.6 70 11.1 52
02:40 1019 30.09 848 25.04 16.5 61.6 71 11.2 52.2
02:45 1019 30.09 848 25.04 16.3 61.3 71 11.1 52
02:50 1019 30.09 848 25.04 16.3 61.3 71 11 51.9
02:55 1019 30.09 848 25.04 16.2 61.2 70 10.9 51.6
03:00 1019 30.09 848 25.04 16.3 61.3 71 11 51.7
03:05 1019 30.09 849 25.07 16.3 61.3 70 11 51.7
03:10 1019 30.09 849 25.07 16.3 61.4 70 10.9 51.7
03:15 1019 30.09 849 25.07 16.1 61.1 71 11 51.8
03:20 1019 30.09 849 25.07 16.1 60.9 71 10.9 51.6
03:25 1020 30.12 849 25.07 15.9 60.7 72 10.9 51.7
03:30 1020 30.12 849 25.07 15.8 60.5 73 11 51.8
03:35 1020 30.12 849 25.07 15.6 60 75 11.3 52.3
03:40 1020 30.12 849 25.07 15.3 59.6 75 11 51.8
03:45 1020 30.12 849 25.07 15.4 59.6 74 10.8 51.4
03:50 1020 30.12 849 25.07 15.7 60.2 72 10.7 51.3
03:55 1020 30.12 849 25.07 15.8 60.4 72 10.8 51.5
04:00 1020 30.12 849 25.07 15.8 60.4 73 11 51.8
04:05 1020 30.12 849 25.07 15.5 59.8 74 10.9 51.7
04:10 1020 30.12 849 25.07 15.3 59.5 75 10.9 51.6
04:15 1020 30.12 849 25.07 15.2 59.3 76 11 51.7
04:20 1020 30.12 849 25.07 15.1 59.1 77 11.1 51.9
04:25 1020 30.12 849 25.07 15.1 59.2 77 11.2 52.1
04:30 1020 30.12 849 25.07 15.2 59.3 76 10.9 51.7
04:35 1020 30.12 849 25.07 15.2 59.4 75 10.9 51.5
04:40 1020 30.12 849 25.07 15.1 59.1 76 10.9 51.6
04:45 1020 30.12 849 25.07 14.8 58.6 76 10.6 51
04:50 1020 30.12 849 25.07 14.8 58.6 75 10.4 50.7
04:55 1020 30.12 849 25.07 14.9 58.8 74 10.4 50.7
05:00 1020 30.12 849 25.07 14.7 58.5 76 10.5 50.9
05:05 1020 30.12 849 25.07 14.4 58 77 10.5 51
05:10 1020 30.12 849 25.07 14.2 57.5 78 10.4 50.8
05:15 1020 30.12 849 25.07 13.9 57.1 79 10.5 50.9
05:20 1020 30.12 849 25.07 13.9 57 78 10.1 50.2
05:25 1020 30.12 849 25.07 14.2 57.6 75 9.9 49.9
05:30 1020 30.12 849 25.07 14.5 58.2 76 10.4 50.7
05:35 1020 30.12 849 25.07 14.3 57.7 78 10.4 50.8
05:40 1020 30.12 849 25.07 14.1 57.4 78 10.3 50.5
05:45 1020 30.12 849 25.07 14.5 58.1 75 10.3 50.5
05:50 1020 30.12 849 25.07 14.7 58.5 73 9.9 49.8
05:55 1020 30.12 849 25.07 15 59 73 10.2 50.3
06:00 1020 30.12 849 25.07 14.9 58.9 73 10.2 50.3
06:05 1020 30.12 849 25.07 14.9 58.8 74 10.3 50.5
06:10 1020 30.12 849 25.07 14.7 58.5 75 10.4 50.7
06:15 1020 30.12 849 25.07 14.5 58.1 75 10.3 50.5
06:20 1020 30.12 849 25.07 14.6 58.3 75 10.3 50.6
06:25 1020 30.12 849 25.07 14.6 58.4 75 10.3 50.5
06:30 1020 30.12 850 25.1 14.7 58.5 75 10.4 50.7
06:35 1020 30.12 850 25.1 14.7 58.5 76 10.6 51.1
06:40 1021 30.15 850 25.1 14.5 58.2 77 10.6 51.1
06:45 1021 30.15 850 25.1 14.4 58 77 10.5 50.9
06:50 1021 30.15 850 25.1 14.5 58.1 76 10.3 50.6
06:55 1021 30.15 850 25.1 14.8 58.6 77 10.8 51.5
07:00 1021 30.15 850 25.1 14.9 58.9 76 10.8 51.4
07:05 1021 30.15 850 25.1 15 59 78 11.2 52.2
07:10 1021 30.15 850 25.1 15.2 59.3 80 11.7 53.1
07:15 1021 30.15 850 25.1 15 59 78 11.2 52.2
07:20 1021 30.15 850 25.1 14.6 58.3 80 11.3 52.4
07:25 1021 30.15 850 25.1 14.5 58.1 82 11.5 52.7
07:30 1021 30.15 850 25.1 14.5 58.1 84 11.9 53.4
07:35 1021 30.15 850 25.1 14.5 58 84 11.8 53.2
07:40 1021 30.15 850 25.1 14.5 58.1 83 11.7 53.1
07:45 1021 30.15 851 25.13 14.6 58.2 86 12.2 54
07:50 1021 30.15 851 25.13 14.6 58.2 86 12.2 54
07:55 1021 30.15 851 25.13 14.4 58 86 12.1 53.8
08:00 1021 30.15 850 25.1 14.3 57.8 87 12.3 54.1
08:05 1021 30.15 850 25.1 14.3 57.7 88 12.3 54.1
08:10 1021 30.15 850 25.1 14.3 57.7 89 12.5 54.5
08:15 1021 30.15 850 25.1 14.3 57.8 89 12.5 54.5
08:20 1021 30.15 850 25.1 14.4 57.8 89 12.5 54.5
08:25 1021 30.15 850 25.1 14.5 58.1 89 12.7 54.9
08:30 1021 30.15 850 25.1 14.6 58.3 88 12.7 54.8
08:35 1021 30.15 850 25.1 14.8 58.6 88 12.8 55.1
08:40 1021 30.15 850 25.1 14.9 58.8 88 13 55.4
08:45 1021 30.15 850 25.1 15 58.9 88 13 55.4
08:50 1021 30.15 850 25.1 15.1 59.1 88 13.1 55.6
08:55 1021 30.15 850 25.1 15.2 59.4 87 13 55.5
09:00 1021 30.15 850 25.1 15.3 59.5 86 13 55.4
09:05 1021 30.15 850 25.1 15.3 59.5 85 12.7 54.9
09:10 1021 30.15 850 25.1 15.5 59.8 88 13.5 56.2
09:15 1021 30.15 850 25.1 15.9 60.6 84 13.2 55.8
09:20 1021 30.15 850 25.1 16.2 61.1 85 13.6 56.5
09:25 1021 30.15 850 25.1 16.2 61.2 84 13.5 56.4
09:30 1021 30.15 850 25.1 16.3 61.3 83 13.5 56.2
09:35 1021 30.15 850 25.1 16.5 61.6 84 13.7 56.7
09:40 1021 30.15 850 25.1 16.6 61.8 82 13.4 56.1
09:45 1021 30.15 850 25.1 16.5 61.6 82 13.5 56.2
09:50 1021 30.15 850 25.1 16.6 62 79 13 55.5
09:55 1021 30.15 850 25.1 16.7 62.1 81 13.4 56.2
10:00 1021 30.15 850 25.1 17.2 63 82 14.2 57.6
10:05 1021 30.15 850 25.1 18.3 65 71 13 55.4
10:10 1021 30.15 850 25.1 18.5 65.3 72 13.4 56.1
10:15 1021 30.15 850 25.1 19.2 66.6 67 12.9 55.3
10:20 1021 30.15 850 25.1 19.4 67 64 12.6 54.7
10:25 1021 30.15 850 25.1 20.2 68.3 59 12 53.7
10:30 1021 30.15 850 25.1 20.4 68.8 55 11.3 52.4
10:35 1021 30.15 850 25.1 20.9 69.7 51 10.5 50.9
10:40 1021 30.15 850 25.1 21.7 71 52 11.7 53
10:45 1021 30.15 850 25.1 22 71.7 50 11.4 52.6
10:50 1021 30.15 850 25.1 22.4 72.2 47 10.7 51.2
10:55 1021 30.15 850 25.1 22.8 73 47 11 51.8
11:00 1021 30.15 850 25.1 22.7 72.9 47 11 51.8
11:05 1021 30.15 850 25.1 21.8 71.2 50 11.1 52
11:10 1021 30.15 850 25.1 22.7 72.8 48 11.2 52.2
11:15 1021 30.15 850 25.1 23.5 74.3 46 11.3 52.4
11:20 1021 30.15 850 25.1 22.7 72.8 49 11.6 52.9
11:25 1021 30.15 850 25.1 21.5 70.7 49 10.4 50.8
11:30 1021 30.15 850 25.1 21.3 70.3 52 11.1 51.9
11:35 1020 30.12 850 25.1 21.2 70.2 51 10.9 51.5
11:40 1020 30.12 850 25.1 22.2 72 45 10 50
11:45 1020 30.12 850 25.1 23.2 73.8 45 10.8 51.4
11:50 1020 30.12 850 25.1 23.1 73.5 45 10.7 51.3
11:55 1020 30.12 850 25.1 23.6 74.4 46 11.5 52.8
12:00 1020 30.12 850 25.1 24.1 75.3 46 11.8 53.3
12:05 1020 30.12 849 25.07 24.2 75.6 46 12.2 54
12:10 1020 30.12 849 25.07 23.5 74.3 46 11.2 52.2
12:15 1020 30.12 849 25.07 23.4 74.1 47 11.6 52.9
12:20 1020 30.12 849 25.07 22.7 72.9 46 10.8 51.4
12:25 1020 30.12 849 25.07 22.5 72.6 45 10.1 50.2
12:30 1020 30.12 849 25.07 22.8 73.1 45 10.4 50.6
12:35 1020 30.12 849 25.07 23.3 74 42 9.8 49.7
12:40 1020 30.12 849 25.07 24.4 75.8 40 10.1 50.2
12:45 1020 30.12 849 25.07 24.6 76.2 34 7.8 46
12:50 1020 30.12 849 25.07 25.2 77.3 36 9.2 48.6
12:55 1020 30.12 849 25.07 25.6 78 34 8.6 47.5
13:00 1020 30.12 849 25.07 24.6 76.3 36 8.7 47.7
13:05 1020 30.12 849 25.07 24.5 76.1 38 9.6 49.2
13:10 1020 30.12 849 25.07 24.8 76.6 35 8.4 47.2
13:15 1020 30.12 849 25.07 25.5 77.8 34 8.7 47.7
13:20 1020 30.12 849 25.07 25.8 78.5 32 8.3 47
13:25 1020 30.12 849 25.07 25.9 78.6 31 7.7 45.9
13:30 1020 30.12 849 25.07 25.9 78.5 33 8.7 47.7
13:35 1020 30.12 849 25.07 25.7 78.3 32 7.9 46.2
13:40 1020 30.12 849 25.07 26.4 79.6 32 8.5 47.2
13:45 1020 30.12 849 25.07 26.3 79.3 31 8.2 46.8
13:50 1019 30.09 849 25.07 26.4 79.4 31 8.4 47
13:55 1019 30.09 849 25.07 26.5 79.7 30 7.8 46.1
14:00 1019 30.09 849 25.07 26.3 79.3 32 8.6 47.4
14:05 1019 30.09 849 25.07 26.4 79.5 31 8.1 46.5
14:10 1019 30.09 848 25.04 26.8 80.3 30 7.9 46.2
14:15 1019 30.09 848 25.04 27 80.7 27 6.5 43.7
14:20 1019 30.09 848 25.04 27.1 80.8 28 7.2 44.9
14:25 1019 30.09 848 25.04 27.2 80.9 28 7.4 45.3
14:30 1019 30.09 848 25.04 27.1 80.7 27 6.9 44.4
14:35 1019 30.09 848 25.04 27.2 81 29 7.7 45.8
14:40 1019 30.09 848 25.04 27.4 81.3 27 7 44.6
14:45 1019 30.09 848 25.04 27.4 81.2 26 6.4 43.5
14:50 1019 30.09 848 25.04 27.1 80.9 27 7 44.5
14:55 1019 30.09 848 25.04 26.8 80.3 26 5.8 42.5
15:00 1019 30.09 848 25.04 27.2 80.9 25 5.7 42.2
15:05 1019 30.09 848 25.04 27.2 80.9 25 5.6 42
15:10 1019 30.09 848 25.04 27.6 81.6 23 5.1 41.2
15:15 1019 30.09 848 25.04 27.1 80.8 25 5.7 42.2
15:20 1019 30.09 848 25.04 27 80.6 25 5.6 42.1
15:25 1019 30.09 848 25.04 26.8 80.3 27 6.3 43.4
15:30 1019 30.09 848 25.04 26.4 79.5 28 6.5 43.7
15:35 1019 30.09 848 25.04 27.7 81.8 24 5.7 42.3
15:40 1019 30.09 848 25.04 27.3 81.1 26 6.3 43.4
15:45 1019 30.09 848 25.04 26.9 80.4 26 5.8 42.5
15:50 1019 30.09 848 25.04 26.9 80.4 26 5.9 42.6
15:55 1018 30.06 848 25.04 26.5 79.7 25 5.2 41.4
16:00 1018 30.06 848 25.04 27 80.7 26 6 42.8
16:05 1019 30.09 848 25.04 27.6 81.7 24 5.8 42.5
16:10 1019 30.09 848 25.04 27.3 81.2 25 6 42.9
16:15 1019 30.09 848 25.04 27.3 81.2 24 5.3 41.5
16:20 1019 30.09 848 25.04 27.4 81.3 26 6.3 43.4
16:25 1019 30.09 848 25.04 26.8 80.3 28 7.1 44.8
16:30 1019 30.09 848 25.04 25.4 77.6 35 9.1 48.4
16:35 1019 30.09 848 25.04 24.5 76 36 8.7 47.6
16:40 1019 30.09 848 25.04 24.2 75.5 38 9.1 48.3
16:45 1019 30.09 848 25.04 24.1 75.4 40 9.7 49.4
16:50 1019 30.09 848 25.04 24.6 76.2 39 9.9 49.8
16:55 1019 30.09 848 25.04 25.3 77.5 32 7.6 45.7
17:00 1018 30.06 848 25.04 25.9 78.5 32 8 46.3
17:05 1018 30.06 848 25.04 26.3 79.3 31 8 46.3
17:10 1018 30.06 848 25.04 26.1 79 31 7.9 46.3
17:15 1018 30.06 848 25.04 26 78.7 34 9 48.3
17:20 1018 30.06 848 25.04 25.4 77.6 34 8.7 47.7
17:25 1018 30.06 848 25.04 24.8 76.7 35 8.7 47.6
17:30 1018 30.06 848 25.04 24.4 75.9 37 9.1 48.3
17:35 1018 30.06 848 25.04 24 75.2 38 9 48.2
17:40 1018 30.06 848 25.04 23.7 74.7 38 8.9 48
17:45 1018 30.06 848 25.04 23.5 74.4 39 9.1 48.5
17:50 1018 30.06 847 25.01 23.4 74 39 9 48.2
17:55 1018 30.06 847 25.01 23.5 74.2 39 8.8 47.8
18:00 1018 30.06 848 25.04 23.8 74.8 37 8.3 47
18:05 1018 30.06 848 25.04 23.9 75 34 7.3 45.2
18:10 1018 30.06 848 25.04 23.7 74.7 35 7.7 45.9
18:15 1018 30.06 848 25.04 23.5 74.3 35 7.5 45.5
18:20 1018 30.06 848 25.04 23.5 74.3 35 7.4 45.2
18:25 1018 30.06 848 25.04 23.4 74.1 35 7.3 45.2
18:30 1019 30.09 848 25.04 23.2 73.8 36 7.5 45.5
18:35 1019 30.09 848 25.04 23.2 73.7 36 7.6 45.7
18:40 1019 30.09 848 25.04 23.1 73.6 40 9.1 48.4
18:45 1019 30.09 849 25.07 22.4 72.2 44 9.8 49.6
18:50 1019 30.09 849 25.07 21.7 71.1 46 9.7 49.4
18:55 1019 30.09 849 25.07 21.1 69.9 51 10.8 51.5
19:00 1019 30.09 849 25.07 20.2 68.4 57 11.7 53
19:05 1019 30.09 848 25.04 19.3 66.7 57 10.7 51.2
19:10 1019 30.09 848 25.04 19.4 66.9 61 11.7 53.1
19:15 1019 30.09 848 25.04 19.5 67.1 58 11.1 52
19:20 1019 30.09 848 25.04 19.9 67.8 55 10.8 51.4
19:25 1019 30.09 848 25.04 19.9 67.8 61 12.4 54.3
19:30 1019 30.09 848 25.04 19 66.3 60 11.1 52
19:35 1019 30.09 848 25.04 19 66.3 64 12.2 53.9
19:40 1019 30.09 848 25.04 18.5 65.3 64 11.6 52.8
19:45 1019 30.09 848 25.04 18.6 65.4 63 11.5 52.8
19:50 1019 30.09 848 25.04 18.3 65 67 12.2 53.9
19:55 1019 30.09 848 25.04 18 64.4 70 12.4 54.4
20:00 1019 30.09 848 25.04 17.9 64.2 69 12.1 53.8
20:05 1019 30.09 848 25.04 17.6 63.7 72 12.5 54.6
20:10 1019 30.09 848 25.04 17.3 63.1 73 12.5 54.5
20:15 1019 30.09 848 25.04 17.3 63.2 69 11.7 53.1
20:20 1019 30.09 848 25.04 17.8 64 69 12.1 53.9
20:25 1019 30.09 848 25.04 18.1 64.5 66 11.6 53
20:30 1019 30.09 848 25.04 18.5 65.4 61 10.9 51.6
20:35 1019 30.09 848 25.04 18.8 65.9 65 12.2 54
20:40 1019 30.09 848 25.04 18.8 65.8 66 12.5 54.4
20:45 1019 30.09 848 25.04 18.4 65.1 64 11.6 52.9
20:50 1019 30.09 848 25.04 18.5 65.3 58 10.2 50.3
20:55 1019 30.09 848 25.04 18.9 65.9 58 10.5 50.9
21:00 1019 30.09 848 25.04 18.7 65.7 61 11 51.8
21:05 1019 30.09 849 25.07 18.5 65.2 62 11.1 52
21:10 1019 30.09 849 25.07 18.4 65.1 63 11.2 52.2
21:15 1019 30.09 849 25.07 18.2 64.7 63 11.2 52.1
21:20 1019 30.09 849 25.07 18.2 64.8 61 10.5 51
21:25 1019 30.09 849 25.07 18.5 65.3 62 11.1 52
21:30 1020 30.12 849 25.07 18.2 64.7 65 11.6 53
21:35 1019 30.09 849 25.07 17.6 63.6 70 12.2 54
21:40 1019 30.09 849 25.07 17.2 62.9 71 11.9 53.4
21:45 1019 30.09 849 25.07 16.9 62.4 72 11.8 53.3
21:50 1019 30.09 849 25.07 16.7 62 70 11.2 52.2
21:55 1019 30.09 849 25.07 16.6 61.8 70 11.1 51.9
22:00 1020 30.12 849 25.07 16.9 62.3 67 10.8 51.4
22:05 1020 30.12 849 25.07 17 62.5 69 11.3 52.4
22:10 1020 30.12 849 25.07 16.9 62.3 72 11.9 53.4
22:15 1020 30.12 849 25.07 16.8 62.2 69 11.1 51.9
22:20 1020 30.12 849 25.07 16.9 62.3 69 11.1 52
22:25 1020 30.12 849 25.07 17 62.5 67 11 51.8
22:30 1020 30.12 849 25.07 16.9 62.5 66 10.7 51.2
22:35 1020 30.12 849 25.07 16.9 62.3 67 10.8 51.4
22:40 1020 30.12 849 25.07 16.7 62.1 68 10.8 51.5
22:45 1020 30.12 849 25.07 16.4 61.4 70 10.9 51.5
22:50 1020 30.12 849 25.07 15.8 60.4 70 10.5 50.8
22:55 1020 30.12 849 25.07 15.6 60.1 71 10.5 50.9
23:00 1020 30.12 849 25.07 15.6 60.1 68 9.8 49.7
23:05 1020 30.12 849 25.07 16.1 61 68 10.3 50.5
23:10 1020 30.12 849 25.07 15.8 60.5 70 10.5 50.9
23:15 1020 30.12 849 25.07 15.6 60.1 69 10.1 50.2
23:20 1020 30.12 849 25.07 15.6 60.2 71 10.5 50.9
23:25 1020 30.12 849 25.07 15.7 60.2 73 10.8 51.5
23:30 1020 30.12 849 25.07 15.7 60.3 69 10 50.1
23:35 1020 30.12 849 25.07 15.8 60.5 68 10 49.9
23:40 1020 30.12 849 25.07 15.7 60.2 69 10 50
23:45 1020 30.12 849 25.07 15.5 59.9 69 9.9 49.9
23:50 1020 30.12 849 25.07 15.5 59.9 69 9.9 49.9
23:55 1020 30.12 849 25.07 15.4 59.6 70 10.1 50.1
24:00 1020 30.12 849 25.07 14.9 58.9 72 10 50